Time;durP1;ratioP1;P1;durP2;ratioP2;P2;SDS_P1;SDS_P2;PMS_P1;PMS_P2;Temp;Humidity;BMP_temperature;BMP_pressure;BME280_temperature;BME280_humidity;BME280_pressure;Samples;Min_cycle;Max_cycle;Signal;HPM_P1;HPM_P2
2024/02/03 00:00:59;;;;;;;4.30;0.75;;;;;;;-1.41;55.46;98389.69;4803822;29;20042;-70
2024/02/03 00:03:25;;;;;;;4.55;0.80;;;;;;;-1.67;55.43;98356.97;4787049;29;20058;-69
2024/02/03 00:05:51;;;;;;;2.83;0.60;;;;;;;-1.54;55.25;98391.16;4803302;29;20109;-69
2024/02/03 00:08:17;;;;;;;2.20;0.52;;;;;;;-1.67;55.25;98383.31;4799311;29;20050;-69
2024/02/03 00:10:44;;;;;;;2.78;0.90;;;;;;;-1.67;55.30;98395.22;4803365;29;20050;-68
2024/02/03 00:13:10;;;;;;;1.40;0.68;;;;;;;-1.88;54.99;98378.69;4795593;29;20072;-69
2024/02/03 00:15:39;;;;;;;4.47;0.68;;;;;;;-1.96;55.01;98370.03;4804280;29;20102;-70
2024/02/03 00:18:05;;;;;;;2.67;1.00;;;;;;;-2.00;55.46;98370.81;4804442;29;20135;-70
2024/02/03 00:20:31;;;;;;;1.20;0.70;;;;;;;-2.07;55.52;98379.16;4790120;29;20045;-69
2024/02/03 00:22:57;;;;;;;2.83;0.80;;;;;;;-2.10;55.21;98387.63;4798834;29;20058;-69
2024/02/03 00:25:29;;;;;;;1.95;0.80;;;;;;;-2.18;55.74;98373.88;4803303;29;20050;-68
2024/02/03 00:27:56;;;;;;;2.90;0.80;;;;;;;-2.25;55.29;98379.69;4804333;29;20062;-68
2024/02/03 00:30:22;;;;;;;2.63;0.63;;;;;;;-2.20;55.82;98396.78;4822615;29;20050;-69
2024/02/03 00:32:48;;;;;;;2.40;0.75;;;;;;;-2.31;56.11;98386.38;4805914;29;20145;-68
2024/02/03 00:35:15;;;;;;;2.80;0.65;;;;;;;-2.24;56.07;98392.44;4789854;29;20070;-69
2024/02/03 00:37:41;;;;;;;1.92;0.60;;;;;;;-2.34;55.95;98395.66;4821485;29;20137;-70
2024/02/03 00:40:08;;;;;;;5.05;1.00;;;;;;;-2.46;55.59;98369.09;4790302;29;20099;-70
2024/02/03 00:42:34;;;;;;;4.45;0.90;;;;;;;-2.53;56.07;98385.06;4819491;29;20471;-69
2024/02/03 00:45:00;;;;;;;2.20;0.70;;;;;;;-2.60;55.86;98378.13;4789922;29;20147;-69
2024/02/03 00:47:26;;;;;;;2.65;0.82;;;;;;;-2.52;56.24;98399.53;4805820;29;20200;-66
2024/02/03 00:49:52;;;;;;;3.00;0.82;;;;;;;-2.57;55.53;98401.13;4776884;29;20050;-69
2024/02/03 00:52:19;;;;;;;3.13;0.65;;;;;;;-2.63;56.11;98388.25;4789435;29;20050;-69
2024/02/03 00:54:45;;;;;;;0.93;0.52;;;;;;;-2.61;56.32;98400.19;4804372;29;20106;-69
2024/02/03 00:57:11;;;;;;;5.57;1.10;;;;;;;-2.64;56.20;98394.19;4806106;29;20152;-69
2024/02/03 00:59:37;;;;;;;4.18;0.90;;;;;;;-2.83;56.09;98360.69;4820935;29;20070;-68
2024/02/03 01:02:03;;;;;;;2.55;1.30;;;;;;;-2.76;56.29;98389.69;4788370;29;20414;-68
2024/02/03 01:04:29;;;;;;;2.42;0.80;;;;;;;-2.93;56.45;98364.72;4820873;29;20113;-67
2024/02/03 01:06:57;;;;;;;3.67;1.05;;;;;;;-2.82;56.56;98386.97;4820920;29;20110;-67
2024/02/03 01:09:24;;;;;;;3.10;1.00;;;;;;;-3.01;56.35;98370.47;4821248;29;20042;-68
2024/02/03 01:11:50;;;;;;;3.80;0.85;;;;;;;-3.04;56.62;98367.00;4810939;29;20445;-69
2024/02/03 01:14:17;;;;;;;1.38;0.80;;;;;;;-2.99;56.54;98379.00;4821088;29;20141;-68
2024/02/03 01:16:46;;;;;;;0.65;0.43;;;;;;;-2.97;56.62;98387.50;4773836;29;20533;-69
2024/02/03 01:19:12;;;;;;;3.88;0.93;;;;;;;-2.98;56.69;98386.66;4799535;29;20101;-69
2024/02/03 01:21:38;;;;;;;4.13;0.65;;;;;;;-2.99;57.08;98386.63;4820819;29;20038;-69
2024/02/03 01:24:05;;;;;;;3.83;0.73;;;;;;;-3.18;57.16;98364.16;4789529;29;20130;-66
2024/02/03 01:26:31;;;;;;;3.25;0.90;;;;;;;-3.07;56.97;98384.75;4819704;29;20053;-68
2024/02/03 01:28:57;;;;;;;4.85;1.30;;;;;;;-3.19;56.81;98369.19;4815258;29;20057;-68
2024/02/03 01:31:23;;;;;;;3.25;0.50;;;;;;;-3.22;56.99;98371.69;4788388;29;20088;-68
2024/02/03 01:33:49;;;;;;;2.70;0.70;;;;;;;-3.16;57.25;98382.00;4803459;29;20611;-67
2024/02/03 01:36:16;;;;;;;3.42;0.77;;;;;;;-3.51;57.19;98328.59;4803391;29;20111;-67
2024/02/03 01:38:48;;;;;;;5.15;0.90;;;;;;;-3.19;57.33;98379.38;4795083;29;20160;-67
2024/02/03 01:41:15;;;;;;;4.97;0.60;;;;;;;-3.23;57.14;98372.50;4819051;29;20544;-66
2024/02/03 01:43:42;;;;;;;3.00;0.85;;;;;;;-3.24;57.24;98384.34;4800666;29;20413;-67
2024/02/03 01:46:09;;;;;;;2.00;0.73;;;;;;;-3.34;57.67;98368.00;4780362;29;20042;-66
2024/02/03 01:48:35;;;;;;;3.88;0.65;;;;;;;-3.30;57.29;98368.09;4789304;29;20060;-69
2024/02/03 01:51:02;;;;;;;2.05;0.68;;;;;;;-3.55;57.56;98331.88;4788766;29;20038;-67
2024/02/03 01:53:29;;;;;;;2.45;0.90;;;;;;;-3.35;57.66;98371.38;4787339;29;20077;-68
2024/02/03 01:55:58;;;;;;;3.55;0.95;;;;;;;-3.47;57.28;98366.00;4787749;29;20038;-67
2024/02/03 01:58:24;;;;;;;3.40;1.10;;;;;;;-3.46;58.01;98367.72;4788458;29;20069;-68
2024/02/03 02:00:54;;;;;;;3.83;1.20;;;;;;;-3.43;57.81;98380.53;4788808;29;20783;-66
2024/02/03 02:03:20;;;;;;;1.58;1.27;;;;;;;-3.55;58.05;98355.66;4787655;29;20069;-68
2024/02/03 02:05:47;;;;;;;2.33;0.80;;;;;;;-3.49;57.69;98376.13;4814805;29;20066;-67
2024/02/03 02:08:13;;;;;;;4.05;1.08;;;;;;;-3.69;58.13;98344.25;4820039;29;20069;-68
2024/02/03 02:10:39;;;;;;;2.95;1.10;;;;;;;-3.88;57.76;98317.53;4788500;29;20064;-67
2024/02/03 02:13:06;;;;;;;2.47;0.80;;;;;;;-3.63;58.01;98357.97;4790457;29;20042;-68
2024/02/03 02:15:32;;;;;;;4.30;1.00;;;;;;;-3.70;58.67;98347.63;4789252;29;20133;-69
2024/02/03 02:18:00;;;;;;;3.40;0.93;;;;;;;-3.76;58.32;98347.50;4820811;29;20054;-69
2024/02/03 02:20:28;;;;;;;1.75;0.60;;;;;;;-3.74;58.11;98350.91;4791070;29;20120;-68
2024/02/03 02:22:55;;;;;;;3.92;0.77;;;;;;;-3.59;58.11;98376.75;4806309;29;20047;-70
2024/02/03 02:25:21;;;;;;;5.38;1.20;;;;;;;-3.65;58.38;98361.31;4805519;29;20042;-69
2024/02/03 02:27:47;;;;;;;3.80;0.93;;;;;;;-3.71;58.21;98361.16;4822616;29;20087;-65
2024/02/03 02:30:14;;;;;;;2.35;0.85;;;;;;;-3.69;58.93;98367.16;4805432;29;20049;-69
2024/02/03 02:32:40;;;;;;;5.15;1.15;;;;;;;-3.75;58.62;98344.97;4805634;29;20038;-68
2024/02/03 02:35:06;;;;;;;1.45;0.65;;;;;;;-3.80;58.50;98346.53;4803265;29;20518;-68
2024/02/03 02:37:33;;;;;;;2.85;0.90;;;;;;;-3.82;58.89;98333.81;4788546;29;20073;-67
2024/02/03 02:39:59;;;;;;;2.72;0.82;;;;;;;-3.82;58.75;98338.88;4803585;29;20063;-64
2024/02/03 02:42:25;;;;;;;3.97;0.70;;;;;;;-3.87;59.04;98334.50;4787656;29;20049;-67
2024/02/03 02:44:51;;;;;;;3.70;0.90;;;;;;;-3.90;58.51;98334.44;4810318;29;20078;-68
2024/02/03 02:47:17;;;;;;;3.92;0.85;;;;;;;-3.86;58.88;98328.63;4787967;29;20047;-66
2024/02/03 02:49:43;;;;;;;2.15;0.98;;;;;;;-3.94;58.84;98334.34;4804083;29;20042;-67
2024/02/03 02:52:10;;;;;;;5.28;0.90;;;;;;;-4.00;58.97;98329.09;4796110;29;20069;-67
2024/02/03 02:54:37;;;;;;;2.38;0.80;;;;;;;-4.02;59.51;98333.28;4803975;29;20065;-68
2024/02/03 02:57:04;;;;;;;2.15;0.90;;;;;;;-3.97;59.68;98335.97;4803203;29;20098;-66
2024/02/03 02:59:30;;;;;;;2.25;0.80;;;;;;;-4.04;59.40;98336.63;4805185;29;20194;-67
2024/02/03 03:01:56;;;;;;;2.53;0.98;;;;;;;-4.09;59.40;98346.66;4773205;29;20129;-69
2024/02/03 03:04:24;;;;;;;2.58;1.00;;;;;;;-4.26;59.61;98320.81;4803379;29;20046;-69
2024/02/03 03:06:50;;;;;;;2.38;0.80;;;;;;;-4.21;59.75;98333.63;4774437;29;20042;-69
2024/02/03 03:09:16;;;;;;;5.57;1.17;;;;;;;-4.21;59.63;98339.56;4822114;29;20470;-71
2024/02/03 03:11:44;;;;;;;3.88;1.33;;;;;;;-4.22;59.97;98340.41;4775500;29;20094;-70
2024/02/03 03:14:13;;;;;;;4.20;1.23;;;;;;;-4.48;59.76;98309.19;4804382;29;20046;-70
2024/02/03 03:16:41;;;;;;;7.20;1.00;;;;;;;-4.34;59.99;98338.38;4805545;29;20065;-72
2024/02/03 03:19:07;;;;;;;4.78;1.23;;;;;;;-4.43;60.09;98325.41;4805039;29;20050;-68
2024/02/03 03:21:33;;;;;;;4.93;1.00;;;;;;;-4.35;60.21;98341.75;4792741;29;20111;-70
2024/02/03 03:23:59;;;;;;;3.08;0.90;;;;;;;-4.41;60.35;98337.34;4807114;29;20065;-70
2024/02/03 03:26:25;;;;;;;2.78;1.00;;;;;;;-4.50;60.44;98315.91;4791465;29;20053;-71
2024/02/03 03:28:51;;;;;;;6.70;1.35;;;;;;;-4.52;60.60;98320.09;4806598;29;20089;-70
2024/02/03 03:31:18;;;;;;;3.67;0.80;;;;;;;-4.54;60.49;98333.63;4792453;29;20107;-71
2024/02/03 03:33:44;;;;;;;2.80;0.98;;;;;;;-4.42;60.76;98347.47;4791667;29;20046;-71
2024/02/03 03:36:11;;;;;;;5.13;1.30;;;;;;;-4.56;61.02;98329.28;4799584;29;20046;-70
2024/02/03 03:38:42;;;;;;;4.72;1.38;;;;;;;-4.54;60.55;98337.81;4790927;29;20050;-70
2024/02/03 03:41:09;;;;;;;5.20;1.30;;;;;;;-4.73;60.88;98318.66;4807383;29;20040;-70
2024/02/03 03:43:36;;;;;;;6.82;1.58;;;;;;;-4.77;60.95;98321.94;4791625;29;20042;-69
2024/02/03 03:46:03;;;;;;;5.55;1.30;;;;;;;-4.87;61.14;98324.22;4798581;29;20046;-67
2024/02/03 03:48:30;;;;;;;5.82;1.58;;;;;;;-4.88;60.91;98329.25;4806052;29;20053;-69
2024/02/03 03:50:56;;;;;;;5.75;1.27;;;;;;;-4.91;61.39;98331.69;4805685;29;20042;-67
2024/02/03 03:53:23;;;;;;;5.20;0.98;;;;;;;-4.92;61.13;98335.91;4789183;29;20050;-68
2024/02/03 03:55:49;;;;;;;3.00;1.00;;;;;;;-5.09;61.15;98321.84;4805455;29;20103;-67
2024/02/03 03:58:15;;;;;;;7.28;1.42;;;;;;;-5.04;61.37;98331.31;4805115;29;20069;-68
2024/02/03 04:00:41;;;;;;;4.95;1.65;;;;;;;-5.05;61.62;98327.06;4797057;29;20042;-68
2024/02/03 04:03:07;;;;;;;4.88;1.40;;;;;;;-5.18;61.72;98294.53;4789498;29;20045;-67
2024/02/03 04:05:33;;;;;;;5.55;1.67;;;;;;;-5.00;62.01;98323.00;4805680;29;20062;-69
2024/02/03 04:07:59;;;;;;;3.33;1.20;;;;;;;-5.06;61.31;98304.19;4789797;29;20331;-67
2024/02/03 04:10:30;;;;;;;3.45;1.20;;;;;;;-5.10;61.60;98299.84;4790278;29;20553;-68
2024/02/03 04:12:56;;;;;;;4.15;1.75;;;;;;;-5.22;61.89;98291.06;4804169;29;20450;-66
2024/02/03 04:15:22;;;;;;;3.17;1.40;;;;;;;-5.20;61.99;98289.44;4797500;29;20099;-68
2024/02/03 04:17:49;;;;;;;5.43;1.33;;;;;;;-5.10;62.14;98294.75;4821947;29;20456;-68
2024/02/03 04:20:16;;;;;;;4.85;1.25;;;;;;;-5.05;61.85;98293.22;4805327;29;20058;-67
2024/02/03 04:22:44;;;;;;;5.93;1.45;;;;;;;-5.04;62.40;98305.94;4775917;29;20086;-66
2024/02/03 04:25:10;;;;;;;4.63;1.35;;;;;;;-5.10;62.44;98285.50;4805715;29;20058;-67
2024/02/03 04:27:36;;;;;;;9.25;1.67;;;;;;;-5.08;62.02;98301.63;4821479;29;20049;-65
2024/02/03 04:30:03;;;;;;;3.75;1.55;;;;;;;-5.17;62.44;98286.13;4789593;29;20502;-68
2024/02/03 04:32:30;;;;;;;6.43;1.67;;;;;;;-5.17;62.60;98281.88;4789650;29;20046;-66
2024/02/03 04:34:56;;;;;;;2.85;1.40;;;;;;;-5.23;62.78;98266.50;4804808;29;20050;-68
2024/02/03 04:37:23;;;;;;;6.40;1.58;;;;;;;-5.17;62.76;98286.97;4804376;29;20050;-68
2024/02/03 04:39:49;;;;;;;7.80;1.23;;;;;;;-5.24;62.59;98285.09;4821489;29;20627;-66
2024/02/03 04:42:15;;;;;;;7.32;1.45;;;;;;;-5.30;62.45;98295.03;4803950;29;20054;-67
2024/02/03 04:44:42;;;;;;;5.50;2.17;;;;;;;-5.53;62.47;98259.69;4804960;29;20104;-64
2024/02/03 04:47:08;;;;;;;5.53;1.80;;;;;;;-5.46;63.06;98278.47;4805395;29;20054;-68
2024/02/03 04:49:34;;;;;;;4.97;2.03;;;;;;;-5.44;62.97;98281.94;4805508;29;20115;-67
2024/02/03 04:52:00;;;;;;;9.18;2.47;;;;;;;-5.40;63.41;98295.56;4798165;29;20069;-69
2024/02/03 04:54:29;;;;;;;5.90;2.33;;;;;;;-5.47;63.48;98282.72;4788395;29;20062;-66
2024/02/03 04:56:55;;;;;;;7.22;2.38;;;;;;;-5.42;63.49;98289.59;4788954;29;20061;-67
2024/02/03 04:59:24;;;;;;;10.73;2.42;;;;;;;-5.34;63.51;98290.69;4821135;29;20102;-68
2024/02/03 05:01:51;;;;;;;7.78;2.58;;;;;;;-5.46;63.44;98266.69;4796712;29;20042;-66
2024/02/03 05:04:19;;;;;;;4.95;2.35;;;;;;;-5.32;63.69;98291.59;4820942;29;20395;-68
2024/02/03 05:06:45;;;;;;;8.05;3.42;;;;;;;-5.40;64.01;98252.44;4804125;29;20513;-65
2024/02/03 05:09:14;;;;;;;13.05;3.75;;;;;;;-5.11;63.93;98286.31;4804588;29;20053;-70
2024/02/03 05:11:40;;;;;;;12.55;4.43;;;;;;;-5.03;63.75;98276.38;4805606;29;20042;-69
2024/02/03 05:14:06;;;;;;;12.18;4.45;;;;;;;-4.91;63.64;98284.31;4821302;29;20073;-67
2024/02/03 05:16:33;;;;;;;12.55;4.97;;;;;;;-4.87;64.02;98276.00;4789469;29;20539;-68
2024/02/03 05:18:58;;;;;;;12.43;4.43;;;;;;;-4.72;64.06;98285.72;4801870;29;20140;-68
2024/02/03 05:21:25;;;;;;;9.40;3.58;;;;;;;-4.65;64.29;98281.66;4821246;29;20564;-71
2024/02/03 05:23:51;;;;;;;12.20;3.97;;;;;;;-4.61;64.29;98272.44;4789733;29;20053;-69
2024/02/03 05:26:17;;;;;;;13.13;4.40;;;;;;;-4.55;64.40;98273.50;4821608;29;20051;-68
2024/02/03 05:28:43;;;;;;;8.95;3.75;;;;;;;-4.40;64.21;98289.94;4811856;29;20053;-68
2024/02/03 05:31:18;;;;;;;8.52;3.97;;;;;;;-4.47;64.19;98247.41;4810835;29;20558;-69
2024/02/03 05:33:45;;;;;;;9.00;3.92;;;;;;;-4.45;64.45;98230.56;4790948;29;20081;-67
2024/02/03 05:36:11;;;;;;;10.30;3.67;;;;;;;-4.05;64.36;98290.00;4811516;29;20050;-65
2024/02/03 05:38:39;;;;;;;11.95;5.30;;;;;;;-4.01;64.40;98285.88;4804634;29;20046;-68
2024/02/03 05:41:08;;;;;;;11.35;5.55;;;;;;;-3.93;64.37;98294.53;4819567;29;20094;-67
2024/02/03 05:43:34;;;;;;;10.85;4.22;;;;;;;-3.91;64.56;98266.63;4820274;29;20061;-66
2024/02/03 05:46:00;;;;;;;12.88;5.15;;;;;;;-3.76;64.66;98289.88;4780322;29;20046;-67
2024/02/03 05:48:27;;;;;;;13.68;5.55;;;;;;;-3.78;64.54;98272.03;4790432;29;20054;-71
2024/02/03 05:50:53;;;;;;;17.65;6.72;;;;;;;-3.64;64.64;98269.81;4814986;29;20148;-68
2024/02/03 05:53:19;;;;;;;14.23;6.78;;;;;;;-3.52;64.51;98288.72;4805192;29;20113;-69
2024/02/03 05:55:46;;;;;;;11.57;5.95;;;;;;;-3.53;64.52;98264.13;4805844;29;20057;-66
2024/02/03 05:58:12;;;;;;;15.02;7.50;;;;;;;-3.55;64.47;98260.69;4803246;29;20141;-69
2024/02/03 06:00:39;;;;;;;15.75;7.25;;;;;;;-3.60;64.72;98247.00;4803879;29;20057;-68
2024/02/03 06:03:06;;;;;;;18.25;7.60;;;;;;;-3.45;64.29;98275.34;4788784;29;20058;-69
2024/02/03 06:05:32;;;;;;;13.45;6.10;;;;;;;-3.45;64.58;98272.78;4803441;29;20119;-69
2024/02/03 06:07:58;;;;;;;7.30;3.95;;;;;;;-3.35;64.02;98286.59;4803783;29;20046;-68
2024/02/03 06:10:24;;;;;;;6.85;3.05;;;;;;;-3.53;64.24;98251.41;4803663;29;20047;-69
2024/02/03 06:12:50;;;;;;;5.03;2.55;;;;;;;-3.27;64.59;98286.75;4820646;29;20422;-66
2024/02/03 06:15:16;;;;;;;6.90;2.20;;;;;;;-3.29;64.65;98280.75;4820165;29;20050;-69
2024/02/03 06:17:44;;;;;;;6.60;1.70;;;;;;;-3.31;64.43;98256.97;4788216;29;20046;-69
2024/02/03 06:20:10;;;;;;;9.85;2.53;;;;;;;-3.26;64.27;98284.22;4803147;29;20073;-69
2024/02/03 06:22:39;;;;;;;5.35;1.63;;;;;;;-3.37;64.17;98263.63;4803099;29;20529;-68
2024/02/03 06:25:08;;;;;;;4.32;1.67;;;;;;;-3.26;64.47;98278.28;4788261;29;20053;-69
2024/02/03 06:27:34;;;;;;;5.00;1.88;;;;;;;-3.34;64.50;98266.25;4802930;29;20544;-68
2024/02/03 06:30:00;;;;;;;7.07;1.60;;;;;;;-3.33;64.57;98262.88;4818203;29;20577;-69
2024/02/03 06:32:27;;;;;;;4.15;1.92;;;;;;;-3.28;64.50;98257.88;4803577;29;20075;-69
2024/02/03 06:34:53;;;;;;;3.45;1.30;;;;;;;-3.10;64.64;98259.13;4788972;29;20568;-70
2024/02/03 06:37:20;;;;;;;7.03;2.47;;;;;;;-3.10;64.62;98265.06;4803843;29;20044;-70
2024/02/03 06:39:46;;;;;;;5.72;1.80;;;;;;;-3.07;64.24;98280.41;4788468;29;20047;-67
2024/02/03 06:42:13;;;;;;;1.60;1.30;;;;;;;-3.08;64.40;98273.59;4819919;29;20502;-65
2024/02/03 06:44:39;;;;;;;8.98;2.78;;;;;;;-3.15;64.03;98281.91;4819467;29;20050;-68
2024/02/03 06:47:05;;;;;;;4.97;2.20;;;;;;;-3.12;64.08;98273.50;4788757;29;20111;-70
2024/02/03 06:49:31;;;;;;;4.30;2.20;;;;;;;-3.11;64.28;98253.16;4803924;29;20081;-69
2024/02/03 06:52:01;;;;;;;3.33;1.55;;;;;;;-2.93;64.45;98273.06;4819933;29;20113;-68
2024/02/03 06:54:27;;;;;;;10.75;3.50;;;;;;;-2.95;64.08;98254.34;4806220;29;20050;-73
2024/02/03 06:56:53;;;;;;;6.03;2.63;;;;;;;-2.85;63.89;98265.56;4789547;29;20058;-71
2024/02/03 06:59:19;;;;;;;3.35;1.70;;;;;;;-3.11;63.89;98217.53;4805526;29;20430;-73
2024/02/03 07:01:46;;;;;;;5.35;1.73;;;;;;;-2.84;64.18;98257.09;4823007;29;20046;-72
2024/02/03 07:04:13;;;;;;;3.72;1.40;;;;;;;-2.79;63.78;98263.16;4778167;29;20062;-72
2024/02/03 07:06:39;;;;;;;2.80;1.40;;;;;;;-2.84;63.61;98240.97;4806305;29;20075;-72
2024/02/03 07:09:05;;;;;;;4.07;1.40;;;;;;;-3.36;64.31;98158.50;4792133;29;20113;-72
2024/02/03 07:11:31;;;;;;;4.95;1.90;;;;;;;-2.73;64.41;98235.25;4813782;29;20426;-72
2024/02/03 07:13:57;;;;;;;3.00;1.30;;;;;;;-2.49;63.24;98259.47;4806336;29;20461;-73
2024/02/03 07:16:24;;;;;;;2.30;1.45;;;;;;;-2.45;63.89;98253.59;4807198;29;20054;-75
2024/02/03 07:18:50;;;;;;;1.98;1.20;;;;;;;-2.51;63.07;98243.28;4809208;29;20046;-75
2024/02/03 07:21:16;;;;;;;3.33;1.45;;;;;;;-2.39;63.59;98239.25;4822787;29;20505;-72
2024/02/03 07:23:42;;;;;;;4.50;2.00;;;;;;;-2.66;63.84;98184.44;4806454;29;20443;-73
2024/02/03 07:26:08;;;;;;;3.05;1.27;;;;;;;-2.19;63.80;98250.66;4790536;29;20046;-69
2024/02/03 07:28:34;;;;;;;3.45;1.40;;;;;;;-2.16;62.92;98232.88;4809363;29;20138;-71
2024/02/03 07:31:00;;;;;;;5.20;1.42;;;;;;;-1.97;62.96;98245.94;4804873;29;20051;-73
2024/02/03 07:33:26;;;;;;;3.28;1.20;;;;;;;-1.96;62.51;98247.66;4805734;29;20050;-74
2024/02/03 07:35:52;;;;;;;2.47;1.02;;;;;;;-2.13;63.11;98225.28;4805667;29;20050;-72
2024/02/03 07:38:19;;;;;;;3.85;1.27;;;;;;;-1.98;62.89;98242.50;4790211;29;20050;-72
2024/02/03 07:40:45;;;;;;;4.03;1.38;;;;;;;-2.26;62.63;98187.66;4790086;29;20046;-71
2024/02/03 07:43:11;;;;;;;4.63;1.00;;;;;;;-1.97;62.59;98221.28;4804428;29;20577;-73
2024/02/03 07:45:37;;;;;;;2.95;1.05;;;;;;;-1.97;62.91;98203.44;4821604;29;20053;-74
2024/02/03 07:48:03;;;;;;;1.45;1.02;;;;;;;-1.60;61.96;98228.66;4804930;29;20046;-72
2024/02/03 07:50:29;;;;;;;3.53;1.30;;;;;;;-1.46;62.25;98236.50;4812446;29;20046;-72
2024/02/03 07:52:56;;;;;;;2.67;1.42;;;;;;;-1.40;62.42;98197.44;4803215;29;20073;-69
2024/02/03 07:55:22;;;;;;;2.30;1.00;;;;;;;-1.42;62.46;98160.84;4813023;29;20510;-67
2024/02/03 07:57:48;;;;;;;3.83;1.40;;;;;;;-0.91;62.46;98210.00;4820207;29;20123;-70
2024/02/03 08:00:14;;;;;;;4.88;1.42;;;;;;;-0.62;61.12;98219.66;4820607;29;20152;-72
2024/02/03 08:02:40;;;;;;;3.35;1.17;;;;;;;-0.46;61.56;98203.66;4804201;29;20034;-72
2024/02/03 08:05:06;;;;;;;5.55;1.35;;;;;;;-0.13;60.92;98218.44;4803598;29;20565;-72
2024/02/03 08:07:32;;;;;;;4.38;1.17;;;;;;;-0.11;60.98;98199.69;4802853;29;20046;-69
2024/02/03 08:09:58;;;;;;;1.40;0.90;;;;;;;-0.07;60.68;98175.88;4803571;29;20884;-70
2024/02/03 08:12:25;;;;;;;2.72;1.30;;;;;;;0.11;60.92;98199.91;4819542;29;20050;-71
2024/02/03 08:14:54;;;;;;;4.72;1.75;;;;;;;0.21;59.92;98188.03;4800262;29;20054;-69
2024/02/03 08:17:20;;;;;;;4.97;1.63;;;;;;;0.14;59.88;98203.31;4822705;29;20066;-67
2024/02/03 08:19:46;;;;;;;2.63;1.30;;;;;;;0.07;59.51;98187.91;4789996;29;20557;-70
2024/02/03 08:22:12;;;;;;;5.30;1.90;;;;;;;0.12;59.54;98194.78;4809988;29;20407;-71
2024/02/03 08:24:38;;;;;;;4.32;1.52;;;;;;;-0.14;58.91;98170.69;4804461;29;20050;-71
2024/02/03 08:27:05;;;;;;;6.30;1.65;;;;;;;-0.01;59.19;98201.50;4802241;29;20485;-71
2024/02/03 08:29:31;;;;;;;4.32;1.83;;;;;;;-0.10;59.22;98173.28;4810685;29;20052;-71
2024/02/03 08:31:57;;;;;;;11.98;1.90;;;;;;;0.24;59.27;98188.00;4787980;29;20046;-70
2024/02/03 08:34:23;;;;;;;7.88;1.92;;;;;;;0.40;58.57;98179.63;4803485;29;20572;-70
2024/02/03 08:36:49;;;;;;;7.22;1.92;;;;;;;0.37;58.51;98168.47;4821018;29;20046;-70
2024/02/03 08:39:15;;;;;;;4.70;1.70;;;;;;;0.47;58.03;98161.72;4817702;29;20076;-70
2024/02/03 08:41:41;;;;;;;7.10;1.90;;;;;;;0.57;58.10;98168.59;4802667;29;20498;-72
2024/02/03 08:44:07;;;;;;;5.60;1.48;;;;;;;0.63;58.31;98157.53;4787118;29;20521;-69
2024/02/03 08:46:34;;;;;;;2.30;1.30;;;;;;;0.58;57.79;98150.69;4803260;29;20082;-71
2024/02/03 08:49:00;;;;;;;3.88;1.67;;;;;;;0.84;57.79;98143.97;4802114;29;20048;-70
2024/02/03 08:51:26;;;;;;;4.68;1.77;;;;;;;1.01;57.77;98147.44;4805609;29;20035;-70
2024/02/03 08:53:52;;;;;;;3.28;1.42;;;;;;;1.30;57.86;98135.56;4803163;29;20065;-69
2024/02/03 08:56:19;;;;;;;4.13;1.83;;;;;;;1.32;57.28;98105.66;4772311;29;20050;-71
2024/02/03 08:58:48;;;;;;;6.47;2.55;;;;;;;1.55;57.00;98103.09;4788533;29;20124;-72
2024/02/03 09:01:14;;;;;;;7.00;2.63;;;;;;;1.80;56.83;98110.81;4795992;29;20049;-72
2024/02/03 09:03:40;;;;;;;4.70;2.25;;;;;;;1.56;56.04;98071.47;4810807;29;20042;-72
2024/02/03 09:06:06;;;;;;;4.25;1.80;;;;;;;1.45;55.86;98062.94;4798925;29;20046;-69
2024/02/03 09:08:32;;;;;;;4.50;1.60;;;;;;;1.55;56.21;98115.09;4825844;29;20046;-70
2024/02/03 09:10:58;;;;;;;6.88;1.95;;;;;;;1.43;55.51;98110.81;4807424;29;20137;-70
2024/02/03 09:13:25;;;;;;;5.63;1.92;;;;;;;1.18;54.91;98105.63;4806953;29;20058;-70
2024/02/03 09:15:51;;;;;;;5.95;1.83;;;;;;;1.15;55.66;98109.06;4818513;29;20045;-70
2024/02/03 09:18:17;;;;;;;3.88;1.90;;;;;;;1.39;56.25;98099.69;4785238;29;20054;-67
2024/02/03 09:20:44;;;;;;;6.15;1.52;;;;;;;1.88;56.13;98095.41;4823580;29;20087;-67
2024/02/03 09:23:10;;;;;;;5.45;2.38;;;;;;;2.34;55.74;98097.03;4805345;29;20095;-71
2024/02/03 09:25:39;;;;;;;4.10;2.05;;;;;;;2.57;54.48;98094.38;4790728;29;20050;-68
2024/02/03 09:28:06;;;;;;;3.33;1.92;;;;;;;2.50;54.57;98093.53;4821419;29;20046;-70
2024/02/03 09:30:33;;;;;;;5.63;2.20;;;;;;;2.16;53.91;98067.13;4777220;29;20042;-70
2024/02/03 09:32:59;;;;;;;5.75;2.30;;;;;;;2.05;54.46;98065.47;4792494;29;20050;-70
2024/02/03 09:35:27;;;;;;;3.15;1.90;;;;;;;2.28;54.51;98086.78;4773638;29;20623;-71
2024/02/03 09:37:53;;;;;;;7.85;2.67;;;;;;;2.00;54.16;98002.16;4820663;29;20045;-72
2024/02/03 09:40:20;;;;;;;5.10;2.63;;;;;;;2.70;54.18;98049.81;4807878;29;20050;-70
2024/02/03 09:42:51;;;;;;;4.70;2.58;;;;;;;3.06;54.17;98047.03;4786699;29;20130;-72
2024/02/03 09:48:05;;;;;;;8.27;2.40;;;;;;;4.64;53.62;98053.22;4808964;29;20062;-67
2024/02/03 09:50:31;;;;;;;3.83;2.10;;;;;;;4.93;52.65;98021.06;4775150;29;20047;-69
2024/02/03 09:53:00;;;;;;;5.97;2.33;;;;;;;5.61;52.05;98006.25;4788643;29;20147;-70
2024/02/03 09:55:27;;;;;;;3.35;2.22;;;;;;;6.13;51.28;98032.88;4772905;29;20054;-68
2024/02/03 09:57:54;;;;;;;5.72;2.10;;;;;;;6.58;51.36;98018.22;4803037;29;20050;-68
2024/02/03 10:00:24;;;;;;;7.07;2.15;;;;;;;7.38;51.46;97990.50;4775369;29;20050;-69
2024/02/03 10:02:50;;;;;;;6.63;2.53;;;;;;;8.46;49.31;98005.81;4801022;29;20050;-70
2024/02/03 10:05:30;;;;;;;4.80;2.08;;;;;;;8.91;47.50;97989.81;4795332;29;20138;-71
2024/02/03 10:08:03;;;;;;;5.95;3.10;;;;;;;8.89;46.93;97960.47;4791615;29;20088;-72
2024/02/03 10:10:30;;;;;;;7.27;3.17;;;;;;;9.28;47.04;97962.69;4789249;29;20502;-72
2024/02/03 10:13:10;;;;;;;7.45;2.80;;;;;;;9.17;45.03;97952.66;4778481;29;20089;-72
2024/02/03 10:15:37;;;;;;;5.50;2.00;;;;;;;8.66;44.59;97956.84;4792571;29;20367;-71
2024/02/03 10:18:08;;;;;;;4.80;2.00;;;;;;;7.96;44.60;97982.09;4805231;29;20062;-72
2024/02/03 10:20:34;;;;;;;4.55;2.00;;;;;;;7.56;44.99;97969.38;4775353;29;20051;-70
2024/02/03 10:23:03;;;;;;;5.07;2.30;;;;;;;7.43;44.71;97979.19;4791256;29;20338;-72
2024/02/03 10:25:29;;;;;;;15.98;5.90;;;;;;;7.11;44.39;97949.78;4797204;29;20047;-72
2024/02/03 10:28:03;;;;;;;5.60;2.10;;;;;;;7.08;44.76;97969.66;4797975;29;20170;-73
2024/02/03 10:30:34;;;;;;;6.43;2.55;;;;;;;6.75;44.40;97950.63;4796755;29;20048;-71
2024/02/03 10:33:03;;;;;;;5.65;2.55;;;;;;;6.48;44.12;97973.63;4809433;29;20055;-68
2024/02/03 10:35:31;;;;;;;6.47;2.20;;;;;;;6.11;44.47;97952.00;4795295;29;20073;-71
2024/02/03 10:37:58;;;;;;;5.78;2.17;;;;;;;5.60;44.60;97909.06;4801012;29;20038;-70
2024/02/03 10:40:30;;;;;;;4.90;2.22;;;;;;;5.66;44.88;97944.22;4784699;29;20050;-71
2024/02/03 10:42:58;;;;;;;4.40;1.75;;;;;;;5.34;44.24;97914.69;4789607;29;20031;-72
2024/02/03 10:45:31;;;;;;;4.38;1.95;;;;;;;5.30;45.01;97939.69;4812600;29;20067;-71
2024/02/03 10:48:01;;;;;;;6.32;2.22;;;;;;;5.19;45.23;97936.44;4804217;29;20088;-70
2024/02/03 10:50:34;;;;;;;6.05;2.10;;;;;;;5.25;45.98;97937.19;4806591;29;20077;-71
2024/02/03 10:53:06;;;;;;;5.00;1.60;;;;;;;4.56;45.23;97892.75;4786002;29;20178;-73
2024/02/03 10:55:37;;;;;;;4.68;1.75;;;;;;;4.48;45.89;97926.38;4785475;29;20042;-73
2024/02/03 10:58:04;;;;;;;4.72;2.05;;;;;;;4.14;45.22;97885.63;4804543;29;20048;-75
2024/02/03 11:00:30;;;;;;;3.22;1.73;;;;;;;4.28;46.23;97925.78;4814291;29;20923;-74
2024/02/03 11:03:00;;;;;;;4.47;1.70;;;;;;;4.19;45.68;97935.31;4811910;29;20240;-72
2024/02/03 11:05:27;;;;;;;5.53;2.13;;;;;;;4.12;46.58;97919.97;4799441;29;20051;-73
2024/02/03 11:07:53;;;;;;;5.07;1.65;;;;;;;4.04;46.92;97910.63;4809275;29;20039;-72
2024/02/03 11:10:28;;;;;;;5.72;1.92;;;;;;;3.89;46.39;97890.25;4812330;29;20169;-71
2024/02/03 11:13:12;;;;;;;6.05;1.70;;;;;;;3.91;46.59;97909.94;4809600;29;20047;-71
2024/02/03 11:15:42;;;;;;;4.60;2.10;;;;;;;3.93;47.39;97927.94;4807627;29;20054;-72
2024/02/03 11:18:13;;;;;;;5.03;2.05;;;;;;;3.96;46.76;97924.47;4794417;29;20053;-70
2024/02/03 11:20:42;;;;;;;5.40;1.70;;;;;;;4.12;47.65;97927.72;4794972;29;20046;-70
2024/02/03 11:23:14;;;;;;;4.50;1.70;;;;;;;4.01;46.92;97902.09;4807849;29;20443;-72
2024/02/03 11:25:45;;;;;;;6.25;2.28;;;;;;;3.97;46.38;97921.03;4782237;29;20055;-73
2024/02/03 11:28:13;;;;;;;4.87;2.37;;;;;;;3.74;47.46;97907.56;4793627;29;20053;-71
2024/02/03 11:30:39;;;;;;;6.20;2.38;;;;;;;3.77;47.31;97907.50;4810431;29;20288;-73
2024/02/03 11:33:06;;;;;;;4.38;1.80;;;;;;;3.81;47.22;97916.06;4794142;29;20080;-74
2024/02/03 11:35:32;;;;;;;5.90;1.85;;;;;;;3.69;47.78;97900.75;4795745;29;20114;-72